首页
METAR-TAF:

METAR-TAF

机场 :

巴塞罗那-埃尔普拉特机场

巴塞罗那, 西班牙

纬度: 41-17N, 经度: 002-04E, 海拔: 4米

当前天气观测

该预报发布于38分钟前的20:00 UTC
静风
温度 10°C
湿度 93%
气压 1022 hPa
能见度10公里或以上
1500米以下无云,无积雨云

METAR: LEBL 292000Z 00000KT CAVOK 10/09 Q1022 NOSIG

时间: 21:38 (20:38 UTC)

预报

该预报发布于3小时和38分钟前的17:00 UTC
预报有效从29日的 18点(UTC)到 30日的 18点(UTC)
风速3节,风向多变
能见度10公里或以上
少量云层高于4000英尺
短暂存在
从 30日的 06点(UTC)到 30日的 10点(UTC)
风速10节,风向北转西北,有时为20节阵风
成为
从 30日的 12点(UTC)到 30日的 14点(UTC)
风速10节,风向北转西北

TAF: LEBL 291700Z 2918/3018 VRB03KT 9999 FEW040 TX18/3013Z TN09/3007Z TEMPO 3006/3010 34010G20KT BECMG 3012/3014 34010KT

超过4000个机场的气象观测和天气预报(METAR&TAF报告)。

可查询的气象台以黄色和红色小点在地图上表示。

将鼠标移到小点上方,可查看气象台名称。

然后点击查看天气观测和预报。

如需切换地图:点击带黑十字的绿色按钮放大地图;点击带横线的绿色按钮缩小地图;或者点击绿色箭头查看邻近地区的地图。


METAR-TAF: